Accueil
METAR-TAF:

METAR-TAF

Aéroports :

Aéroport de Karlsruhe-Baden-Baden

Baden-Baden, Allemagne

latitude: 48-46-43N, longitude: 008-04-47E, altitude: 124 m

Observation

Le bulletin a été fait il y a 24 minutes, à 21:50 UTC
Vent 5 kt de nord/nord-est
Température 14°C
Humidité 47%
Pression 1026 hPa
Visibilité 10 km ou plus

METAR: EDSB 192150Z AUTO 03005KT 9999 NCD 14/03 Q1026

Heure: 00:14 (22:14 UTC)

Prévision

Le bulletin a été fait il y a 5 heures et 14 minutes, à 17:00 UTC
Prévision valable du 19 à 18 UTC au 20 à 18 UTC
Vent 8 kt de nord/nord-est
Visibilité 10 km ou plus
pas de nuages en-dessous de 1500 mètres et pas de cumulonimbus.
Temporairement
du 19 à 20 UTC au 20 à 06 UTC
Vent 3 kt de direction variable

TAF: EDSB 191700Z 1918/2018 02008KT CAVOK TEMPO 1920/2006 VRB03KT

Observations et prévisions météorologiques de plus de 4000 aéroports (messages METAR et TAF).

Les stations disponibles sont représentées par des disques jaunes et rouges sur la carte.

Passer la souris dessus pour voir le nom de la station.

Cliquer dessus pour voir les observations et prévisions météorologiques.

Pour changer de carte: cliquez sur les boutons verts avec une croix noire pour zoomer, sur le bouton vert avec un tiret pour effectuer un zoom arrière, ou sur les flèches vertes pour les cartes adjacentes.


METAR-TAF: